Time;durP1;ratioP1;P1;durP2;ratioP2;P2;SDS_P1;SDS_P2;PMS_P1;PMS_P2;Temp;Humidity;BMP_temperature;BMP_pressure;BME280_temperature;BME280_humidity;BME280_pressure;Samples;Min_cycle;Max_cycle;Signal;HPM_P1;HPM_P2
2022/07/09 00:01:15;;;;;;;9.05;5.65;;;;;;;17.67;86.79;102672.13;4991368;28;20050;-72
2022/07/09 00:03:40;;;;;;;8.27;5.80;;;;;;;17.71;86.50;102672.53;4993647;28;20112;-74
2022/07/09 00:06:05;;;;;;;11.45;6.25;;;;;;;17.61;88.33;102670.31;4992360;28;20026;-72
2022/07/09 00:08:31;;;;;;;11.63;6.20;;;;;;;17.55;88.63;102671.22;4992684;28;20442;-73
2022/07/09 00:10:56;;;;;;;10.15;5.85;;;;;;;17.52;89.42;102671.69;4991954;28;20038;-73
2022/07/09 00:13:21;;;;;;;13.32;6.35;;;;;;;17.48;89.87;102673.19;4991816;28;20109;-72
2022/07/09 00:15:47;;;;;;;11.10;6.75;;;;;;;17.42;91.09;102674.09;4999534;28;20081;-75
2022/07/09 00:18:12;;;;;;;11.75;7.07;;;;;;;17.42;90.35;102666.75;4987871;28;20050;-74
2022/07/09 00:20:37;;;;;;;12.02;6.40;;;;;;;17.41;91.21;102676.03;4974186;28;20042;-74
2022/07/09 00:23:03;;;;;;;11.60;6.95;;;;;;;17.38;91.27;102671.00;4973744;28;20019;-74
2022/07/09 00:25:28;;;;;;;12.60;7.40;;;;;;;17.40;91.13;102674.34;4974388;28;20425;-74
2022/07/09 00:27:53;;;;;;;11.45;7.10;;;;;;;17.36;91.26;102671.22;4974154;28;20031;-74
2022/07/09 00:30:19;;;;;;;11.73;6.43;;;;;;;17.34;91.63;102669.78;4993146;28;20117;-73
2022/07/09 00:32:44;;;;;;;14.05;6.50;;;;;;;17.25;91.84;102669.22;4993442;28;20031;-71
2022/07/09 00:35:10;;;;;;;10.00;6.65;;;;;;;17.26;92.51;102668.16;4993152;28;20022;-74
2022/07/09 00:37:35;;;;;;;12.75;7.78;;;;;;;17.25;92.54;102665.66;4985396;28;20038;-75
2022/07/09 00:40:00;;;;;;;10.88;7.10;;;;;;;17.18;93.11;102671.16;4990666;28;20037;-74
2022/07/09 00:42:25;;;;;;;10.98;6.97;;;;;;;17.13;94.17;102658.16;4992102;28;20030;-73
2022/07/09 00:44:51;;;;;;;13.48;7.40;;;;;;;17.10;94.77;102658.63;4993149;28;20029;-72
2022/07/09 00:47:17;;;;;;;12.30;7.32;;;;;;;17.09;94.70;102656.13;4993344;28;20069;-71
2022/07/09 00:49:42;;;;;;;14.32;7.63;;;;;;;17.08;95.03;102668.97;5007062;28;20028;-71
2022/07/09 00:52:13;;;;;;;12.85;7.82;;;;;;;17.05;95.66;102663.94;5012579;28;20112;-72
2022/07/09 00:54:40;;;;;;;11.23;7.18;;;;;;;17.03;95.79;102665.22;5012878;28;20026;-74
2022/07/09 00:57:07;;;;;;;10.48;7.15;;;;;;;17.00;96.59;102663.78;5012582;28;20240;-73
2022/07/09 00:59:34;;;;;;;11.75;7.53;;;;;;;16.97;97.11;102664.25;4995016;28;20031;-74
2022/07/09 01:02:00;;;;;;;12.57;7.75;;;;;;;16.91;97.74;102659.63;4990437;28;20096;-73
2022/07/09 01:04:26;;;;;;;12.02;7.68;;;;;;;16.90;97.69;102658.81;4991848;28;20596;-74
2022/07/09 01:06:51;;;;;;;13.13;7.78;;;;;;;16.90;98.09;102661.53;4992956;28;20023;-71
2022/07/09 01:09:16;;;;;;;12.63;8.23;;;;;;;16.85;99.48;102653.16;4990612;28;20369;-74
2022/07/09 01:11:42;;;;;;;15.60;8.23;;;;;;;16.80;99.49;102653.81;4993077;28;20027;-74
2022/07/09 01:14:07;;;;;;;12.30;7.47;;;;;;;16.83;100.00;102653.38;4993135;28;20659;-74
2022/07/09 01:16:34;;;;;;;11.73;8.07;;;;;;;16.82;99.18;102648.97;4978385;28;20061;-72
2022/07/09 01:19:00;;;;;;;9.77;7.00;;;;;;;16.80;98.65;102642.03;4980450;28;20042;-74
2022/07/09 01:21:25;;;;;;;13.00;8.52;;;;;;;16.76;99.78;102647.13;4993037;28;20081;-71
2022/07/09 01:23:51;;;;;;;12.98;8.52;;;;;;;16.74;100.00;102643.78;4994942;28;20030;-73
2022/07/09 01:26:19;;;;;;;12.20;7.90;;;;;;;16.69;100.00;102646.34;4996633;28;20026;-74
2022/07/09 01:28:45;;;;;;;13.75;7.78;;;;;;;16.70;100.00;102637.06;4994370;28;20022;-72
2022/07/09 01:31:10;;;;;;;13.65;8.65;;;;;;;16.70;100.00;102631.63;4996502;28;20080;-74
2022/07/09 01:33:35;;;;;;;12.15;7.93;;;;;;;16.65;100.00;102628.69;4995941;28;20028;-73
2022/07/09 01:36:00;;;;;;;15.60;8.57;;;;;;;16.56;100.00;102625.41;5011136;28;20026;-73
2022/07/09 01:38:26;;;;;;;12.80;9.82;;;;;;;16.58;100.00;102619.72;5006376;28;20034;-75
2022/07/09 01:40:51;;;;;;;13.07;7.95;;;;;;;16.54;100.00;102622.06;4975823;28;20036;-71
2022/07/09 01:43:16;;;;;;;10.90;8.90;;;;;;;16.48;100.00;102617.47;4976576;28;20113;-70
2022/07/09 01:45:42;;;;;;;12.75;8.65;;;;;;;16.47;100.00;102618.53;4991964;28;20062;-72
2022/07/09 01:48:07;;;;;;;13.05;8.90;;;;;;;16.46;100.00;102617.69;4976599;28;20049;-73
2022/07/09 01:50:33;;;;;;;13.57;9.30;;;;;;;16.39;100.00;102619.63;5013346;28;20036;-73
2022/07/09 01:52:58;;;;;;;11.63;8.30;;;;;;;16.43;100.00;102609.13;5015408;28;20030;-74
2022/07/09 01:55:23;;;;;;;16.67;9.02;;;;;;;16.39;100.00;102619.63;5012955;28;20110;-73
2022/07/09 01:57:48;;;;;;;10.80;8.35;;;;;;;16.45;100.00;102618.75;4995778;28;20393;-73
2022/07/09 02:00:14;;;;;;;15.00;9.18;;;;;;;16.33;100.00;102619.69;4994878;28;20034;-72
2022/07/09 02:02:39;;;;;;;11.95;8.70;;;;;;;16.35;100.00;102620.28;4993873;28;20072;-71
2022/07/09 02:05:05;;;;;;;14.40;9.00;;;;;;;16.37;100.00;102619.03;4994615;28;20394;-75
2022/07/09 02:07:30;;;;;;;12.35;8.60;;;;;;;16.34;100.00;102611.28;4993979;28;20022;-71
2022/07/09 02:09:56;;;;;;;9.68;8.10;;;;;;;16.24;100.00;102608.19;4994938;28;20026;-73
2022/07/09 02:12:21;;;;;;;11.02;8.40;;;;;;;16.25;100.00;102609.88;4995998;28;20117;-72
2022/07/09 02:14:47;;;;;;;13.23;8.57;;;;;;;16.19;100.00;102610.75;4990303;28;20030;-72
2022/07/09 02:17:12;;;;;;;15.05;8.68;;;;;;;16.15;100.00;102601.31;4974821;28;20056;-74
2022/07/09 02:19:38;;;;;;;12.75;8.70;;;;;;;16.19;100.00;102613.47;4992753;28;20030;-74
2022/07/09 02:22:04;;;;;;;11.60;8.30;;;;;;;16.16;100.00;102603.00;4995561;28;20029;-72
2022/07/09 02:24:29;;;;;;;11.95;8.40;;;;;;;16.19;100.00;102613.47;4995761;28;20018;-72
2022/07/09 02:26:54;;;;;;;12.13;8.65;;;;;;;16.11;100.00;102599.03;4995697;28;20080;-71
2022/07/09 02:29:20;;;;;;;12.98;8.60;;;;;;;16.12;100.00;102603.44;4993117;28;20109;-74
2022/07/09 02:31:45;;;;;;;11.02;8.07;;;;;;;16.01;100.00;102595.94;4995622;28;20462;-72
2022/07/09 02:34:10;;;;;;;14.82;8.77;;;;;;;16.03;100.00;102591.06;4994802;28;20101;-73
2022/07/09 02:36:36;;;;;;;12.52;8.88;;;;;;;15.92;100.00;102594.50;4994563;28;20026;-71
2022/07/09 02:39:01;;;;;;;12.65;9.27;;;;;;;15.87;100.00;102597.91;4992840;28;20022;-76
2022/07/09 02:41:26;;;;;;;10.80;8.35;;;;;;;15.93;100.00;102599.75;4995149;28;20034;-73
2022/07/09 02:43:52;;;;;;;12.63;8.10;;;;;;;15.80;100.00;102590.81;5010443;28;20036;-74
2022/07/09 02:46:17;;;;;;;12.05;8.40;;;;;;;15.82;100.00;102596.88;4995144;28;20022;-72
2022/07/09 02:48:42;;;;;;;12.55;8.50;;;;;;;15.81;100.00;102589.75;4998665;28;20041;-70
2022/07/09 02:51:08;;;;;;;10.23;8.32;;;;;;;15.74;100.00;102585.09;5013257;28;20377;-71
2022/07/09 02:53:33;;;;;;;9.15;8.20;;;;;;;15.71;100.00;102582.81;5014813;28;20032;-71
2022/07/09 02:55:58;;;;;;;11.20;8.40;;;;;;;15.63;100.00;102577.63;5014492;28;20062;-72
2022/07/09 02:58:24;;;;;;;15.68;8.35;;;;;;;15.65;100.00;102583.69;5011832;28;20346;-71
2022/07/09 03:00:49;;;;;;;9.65;8.13;;;;;;;15.64;100.00;102571.13;5009693;28;20029;-73
2022/07/09 03:03:14;;;;;;;10.60;8.48;;;;;;;15.66;100.00;102577.19;5013093;28;20040;-71
2022/07/09 03:05:40;;;;;;;12.02;8.48;;;;;;;15.62;100.00;102581.38;5014257;28;20092;-73
2022/07/09 03:08:08;;;;;;;11.25;9.10;;;;;;;15.62;100.00;102572.38;5007778;28;20026;-72
2022/07/09 03:10:38;;;;;;;12.48;9.95;;;;;;;15.56;100.00;102576.81;4991538;28;20026;-72
2022/07/09 03:13:13;;;;;;;14.60;11.00;;;;;;;15.65;100.00;102578.22;4993099;28;20397;-72
2022/07/09 03:15:47;;;;;;;16.60;11.77;;;;;;;15.66;100.00;102574.44;4993187;28;20476;-72
2022/07/09 03:18:22;;;;;;;15.23;11.68;;;;;;;15.63;100.00;102572.16;4995836;28;20095;-72
2022/07/09 03:21:00;;;;;;;18.42;12.55;;;;;;;15.65;100.00;102575.50;5012657;28;20400;-72
2022/07/09 03:23:33;;;;;;;17.45;13.65;;;;;;;15.67;100.00;102576.13;5012316;28;20021;-72
2022/07/09 03:26:07;;;;;;;14.15;12.27;;;;;;;15.55;100.00;102580.56;5012621;28;20022;-72
2022/07/09 03:28:43;;;;;;;18.30;12.80;;;;;;;15.55;100.00;102578.69;5004068;28;20361;-70
2022/07/09 03:31:19;;;;;;;15.27;13.05;;;;;;;15.55;100.00;102575.13;4991348;28;20198;-72
2022/07/09 03:33:55;;;;;;;18.67;14.43;;;;;;;15.53;100.00;102572.59;4992770;28;20026;-72
2022/07/09 03:36:32;;;;;;;20.15;14.85;;;;;;;15.55;100.00;102575.97;4992580;28;20113;-72
2022/07/09 03:39:08;;;;;;;20.88;14.50;;;;;;;15.52;100.00;102572.81;4991541;28;20037;-73
2022/07/09 03:41:35;;;;;;;19.83;14.40;;;;;;;15.50;100.00;102573.03;5007046;28;20037;-71
2022/07/09 03:44:08;;;;;;;19.88;14.80;;;;;;;15.45;100.00;102574.75;5012358;28;20021;-71
2022/07/09 03:46:42;;;;;;;17.73;14.98;;;;;;;15.45;100.00;102581.03;5012039;28;20044;-72
2022/07/09 03:49:16;;;;;;;24.98;17.33;;;;;;;15.52;100.00;102578.28;4999254;28;20023;-72
2022/07/09 03:51:49;;;;;;;24.83;17.83;;;;;;;15.47;100.00;102576.19;4989642;28;20472;-72
2022/07/09 03:54:16;;;;;;;20.27;17.23;;;;;;;15.46;100.00;102576.41;4980851;28;20030;-73
2022/07/09 03:56:42;;;;;;;26.13;17.23;;;;;;;15.38;100.00;102572.91;4992731;28;20625;-71
2022/07/09 03:59:08;;;;;;;25.33;17.60;;;;;;;15.36;100.00;102577.72;4998344;28;20409;-71
2022/07/09 04:01:34;;;;;;;22.35;18.17;;;;;;;15.38;100.00;102575.63;4971975;28;20030;-72
2022/07/09 04:03:59;;;;;;;21.48;17.83;;;;;;;15.41;100.00;102572.47;4973230;28;20026;-70
2022/07/09 04:06:25;;;;;;;24.50;18.80;;;;;;;15.47;100.00;102572.63;4972684;28;20011;-73
2022/07/09 04:08:50;;;;;;;23.00;17.88;;;;;;;15.47;100.00;102572.63;4992534;28;20473;-72
2022/07/09 04:11:15;;;;;;;29.58;18.65;;;;;;;15.48;100.00;102574.31;5011860;28;20416;-73
2022/07/09 04:13:41;;;;;;;25.33;18.23;;;;;;;15.47;100.00;102572.63;5011768;28;20492;-71
2022/07/09 04:16:06;;;;;;;22.95;18.00;;;;;;;15.51;100.00;102572.00;5011739;28;20029;-72
2022/07/09 04:18:32;;;;;;;24.50;18.70;;;;;;;15.46;100.00;102576.41;5002356;28;20039;-72
2022/07/09 04:20:57;;;;;;;26.05;20.17;;;;;;;15.43;100.00;102572.25;4992393;28;20026;-72
2022/07/09 04:23:23;;;;;;;24.63;18.63;;;;;;;15.43;100.00;102569.53;4992053;28;20767;-71
2022/07/09 04:25:50;;;;;;;24.02;19.15;;;;;;;15.43;100.00;102564.06;4992223;28;20027;-72
2022/07/09 04:28:19;;;;;;;32.88;21.60;;;;;;;15.48;100.00;102563.41;4992184;28;20450;-71
2022/07/09 04:30:45;;;;;;;27.02;20.70;;;;;;;15.50;100.00;102555.84;4992179;28;20031;-71
2022/07/09 04:33:10;;;;;;;31.45;22.17;;;;;;;15.57;100.00;102553.94;4991924;28;20468;-72
2022/07/09 04:35:36;;;;;;;30.30;24.15;;;;;;;15.59;100.00;102555.41;4992054;28;20121;-71
2022/07/09 04:38:02;;;;;;;29.65;22.50;;;;;;;15.61;100.00;102557.91;4992931;28;20045;-71
2022/07/09 04:40:27;;;;;;;32.58;24.48;;;;;;;15.64;100.00;102557.47;5004793;28;20041;-71
2022/07/09 04:42:53;;;;;;;31.08;24.50;;;;;;;15.68;100.00;102563.31;4991797;28;20030;-72
2022/07/09 04:45:18;;;;;;;33.40;25.45;;;;;;;15.67;100.00;102562.50;4992986;28;20030;-70
2022/07/09 04:47:43;;;;;;;30.00;25.15;;;;;;;15.71;100.00;102552.78;4992486;28;20069;-72
2022/07/09 04:50:10;;;;;;;32.08;26.42;;;;;;;15.75;100.00;102554.03;4975428;28;20034;-71
2022/07/09 04:52:47;;;;;;;30.40;25.10;;;;;;;15.84;100.00;102562.03;4992629;28;20527;-74
2022/07/09 04:55:16;;;;;;;36.65;26.80;;;;;;;15.90;100.00;102561.16;4992887;28;20026;-72
2022/07/09 04:57:42;;;;;;;31.92;26.27;;;;;;;15.92;100.00;102561.75;4991298;28;20022;-76
2022/07/09 05:00:08;;;;;;;32.35;27.45;;;;;;;15.99;100.00;102559.81;5008593;28;20026;-72
2022/07/09 05:02:34;;;;;;;32.53;28.05;;;;;;;15.97;100.00;102559.19;4999531;28;20033;-78
2022/07/09 05:05:06;;;;;;;35.17;28.02;;;;;;;15.93;100.00;102549.78;4995698;28;20034;-77
2022/07/09 05:07:32;;;;;;;37.15;27.48;;;;;;;15.99;100.00;102548.91;4997178;28;20037;-74
2022/07/09 05:09:57;;;;;;;32.47;28.48;;;;;;;16.00;100.00;102550.56;4995725;28;20030;-75
2022/07/09 05:12:23;;;;;;;35.30;29.65;;;;;;;16.00;100.00;102553.28;4994260;28;20030;-73
2022/07/09 05:14:48;;;;;;;32.60;27.63;;;;;;;16.04;100.00;102557.25;4995680;28;20488;-74
2022/07/09 05:17:13;;;;;;;36.17;30.55;;;;;;;16.09;100.00;102549.25;4996533;28;20120;-73
2022/07/09 05:19:39;;;;;;;32.85;28.85;;;;;;;16.11;100.00;102547.13;5012052;28;20032;-74
2022/07/09 05:22:04;;;;;;;37.75;30.35;;;;;;;16.06;100.00;102546.97;4994702;28;20035;-74
2022/07/09 05:24:29;;;;;;;35.20;29.75;;;;;;;16.11;100.00;102547.13;4994478;28;20041;-74
2022/07/09 05:26:55;;;;;;;34.15;28.58;;;;;;;16.17;100.00;102555.50;4995510;28;20045;-72
2022/07/09 05:29:22;;;;;;;33.58;29.70;;;;;;;16.20;100.00;102558.63;4995441;28;20442;-74
2022/07/09 05:31:48;;;;;;;34.60;29.05;;;;;;;16.22;100.00;102544.75;5009674;28;20030;-74
2022/07/09 05:34:14;;;;;;;35.47;28.55;;;;;;;16.25;100.00;102561.53;5014654;28;20033;-75
2022/07/09 05:36:40;;;;;;;36.75;29.88;;;;;;;16.24;100.00;102553.56;5014929;28;20030;-73
2022/07/09 05:39:07;;;;;;;33.58;28.88;;;;;;;16.29;100.00;102559.22;5014844;28;20025;-74
2022/07/09 05:41:33;;;;;;;33.22;29.55;;;;;;;16.28;100.00;102558.34;5012351;28;20025;-73
2022/07/09 05:44:03;;;;;;;34.35;30.15;;;;;;;16.21;100.00;102552.09;5014707;28;20033;-73
2022/07/09 05:46:36;;;;;;;35.88;30.00;;;;;;;16.23;100.00;102554.59;4997136;28;20034;-75
2022/07/09 05:49:09;;;;;;;36.15;29.50;;;;;;;16.25;100.00;102549.78;4994837;28;20021;-71
2022/07/09 05:51:43;;;;;;;35.15;30.02;;;;;;;16.27;100.00;102544.91;4993870;28;20498;-74
2022/07/09 05:54:17;;;;;;;33.15;29.55;;;;;;;16.33;100.00;102544.03;4994501;28;20470;-73
2022/07/09 05:56:44;;;;;;;33.33;29.58;;;;;;;16.40;100.00;102536.63;4994376;28;20401;-74
2022/07/09 05:59:30;;;;;;;35.42;30.00;;;;;;;16.47;100.00;102548.34;4991993;28;20102;-78
2022/07/09 06:01:57;;;;;;;32.33;27.90;;;;;;;16.54;100.00;102555.63;4992807;28;20767;-76
2022/07/09 06:04:30;;;;;;;30.65;26.90;;;;;;;16.58;100.00;102556.88;5007593;28;20031;-74
2022/07/09 06:07:05;;;;;;;34.47;27.73;;;;;;;16.62;100.00;102547.13;4974687;28;20081;-76
2022/07/09 06:09:38;;;;;;;30.83;26.70;;;;;;;16.63;100.00;102549.66;4990823;28;20403;-75
2022/07/09 06:12:06;;;;;;;33.50;26.60;;;;;;;16.63;100.00;102540.63;4993552;28;20490;-75
2022/07/09 06:14:36;;;;;;;29.23;25.52;;;;;;;16.70;100.00;102557.81;4994355;28;20109;-75
2022/07/09 06:17:30;;;;;;;30.65;26.85;;;;;;;16.71;100.00;102559.47;4993986;28;20145;-77
2022/07/09 06:20:05;;;;;;;31.48;26.27;;;;;;;16.78;100.00;102556.69;4993898;28;20034;-75
2022/07/09 06:22:44;;;;;;;29.77;26.02;;;;;;;16.81;100.00;102562.53;4993708;28;20037;-76
2022/07/09 06:25:18;;;;;;;32.42;26.85;;;;;;;16.84;100.00;102556.59;4989828;28;20046;-76
2022/07/09 06:27:45;;;;;;;32.80;26.83;;;;;;;16.94;100.00;102552.53;4974715;28;20031;-76
2022/07/09 06:30:10;;;;;;;33.42;26.52;;;;;;;17.03;100.00;102553.94;4974165;28;20111;-75
2022/07/09 06:32:36;;;;;;;32.17;26.65;;;;;;;17.03;100.00;102547.63;5012861;28;20083;-75
2022/07/09 06:35:02;;;;;;;32.03;26.50;;;;;;;17.06;100.00;102558.09;5013768;28;20397;-75
2022/07/09 06:37:28;;;;;;;31.63;26.48;;;;;;;17.09;100.00;102552.19;5013613;28;20021;-76
2022/07/09 06:39:55;;;;;;;32.45;26.80;;;;;;;17.16;100.00;102552.94;5013793;28;20025;-76
2022/07/09 06:42:24;;;;;;;30.38;23.92;;;;;;;17.22;100.00;102557.50;4995254;28;20030;-78
2022/07/09 06:44:49;;;;;;;33.28;26.60;;;;;;;17.22;100.00;102559.41;4987971;28;20043;-74
2022/07/09 06:47:14;;;;;;;31.23;26.60;;;;;;;17.23;100.00;102559.19;4981858;28;20029;-75
2022/07/09 06:49:40;;;;;;;38.22;25.67;;;;;;;17.34;100.00;102563.88;4994020;28;20030;-75
2022/07/09 06:52:06;;;;;;;31.95;27.27;;;;;;;17.36;100.00;102569.13;5010531;28;20030;-79
2022/07/09 06:54:31;;;;;;;32.88;27.65;;;;;;;17.37;100.00;102562.59;4998225;28;20084;-78
2022/07/09 06:56:57;;;;;;;30.02;26.45;;;;;;;17.46;100.00;102569.44;4995469;28;20062;-76
2022/07/09 06:59:25;;;;;;;33.85;27.95;;;;;;;17.50;100.00;102564.34;4994596;28;20018;-74
2022/07/09 07:01:51;;;;;;;36.08;28.83;;;;;;;17.55;100.00;102559.00;4988274;28;20367;-73
2022/07/09 07:04:16;;;;;;;31.02;26.60;;;;;;;17.61;100.00;102554.53;4974530;28;20049;-71
2022/07/09 07:06:42;;;;;;;35.13;27.58;;;;;;;17.65;100.00;102556.56;4985962;28;20049;-78
2022/07/09 07:09:21;;;;;;;31.63;27.85;;;;;;;17.69;100.00;102578.81;4975489;28;20421;-78
2022/07/09 07:11:50;;;;;;;33.53;26.55;;;;;;;17.75;100.00;102571.59;5006096;28;20068;-75
2022/07/09 07:14:30;;;;;;;26.67;22.90;;;;;;;17.82;100.00;102566.88;5013179;28;20030;-77
2022/07/09 07:16:58;;;;;;;30.17;24.38;;;;;;;17.89;100.00;102563.00;4994371;28;20030;-73
2022/07/09 07:19:47;;;;;;;30.00;22.75;;;;;;;17.94;100.00;102567.78;4994105;28;20031;-73
2022/07/09 07:22:24;;;;;;;23.92;21.17;;;;;;;17.98;100.00;102568.13;4996128;28;20038;-75
2022/07/09 07:24:50;;;;;;;23.60;21.05;;;;;;;18.08;100.00;102560.19;4994895;28;20031;-77
2022/07/09 07:27:15;;;;;;;26.20;21.88;;;;;;;18.19;100.00;102564.03;4993749;28;20034;-77
2022/07/09 07:29:41;;;;;;;25.42;21.42;;;;;;;18.19;100.00;102551.19;4993737;28;20030;-74
2022/07/09 07:32:07;;;;;;;27.02;22.00;;;;;;;18.31;100.00;102555.84;5011257;28;20057;-76
2022/07/09 07:34:32;;;;;;;26.15;20.63;;;;;;;18.42;100.00;102557.78;5007658;28;20026;-75
2022/07/09 07:36:57;;;;;;;26.77;20.33;;;;;;;18.52;100.00;102565.41;4985467;28;20031;-73
2022/07/09 07:39:24;;;;;;;27.20;21.98;;;;;;;18.55;100.00;102562.19;4990943;28;20450;-77
2022/07/09 07:41:50;;;;;;;25.75;20.98;;;;;;;18.63;100.00;102566.47;4992945;28;20030;-73
2022/07/09 07:44:15;;;;;;;26.02;21.67;;;;;;;18.71;100.00;102563.41;4993887;28;20022;-75
2022/07/09 07:46:40;;;;;;;26.20;19.73;;;;;;;18.76;99.68;102566.25;4993898;28;20109;-77
2022/07/09 07:49:05;;;;;;;21.02;18.77;;;;;;;18.83;100.00;102566.16;4992842;28;20061;-77
2022/07/09 07:51:31;;;;;;;26.98;20.40;;;;;;;18.85;100.00;102572.22;4981703;28;20027;-75
2022/07/09 07:53:56;;;;;;;26.35;21.10;;;;;;;18.88;100.00;102577.25;4974592;28;20027;-73
2022/07/09 07:56:22;;;;;;;25.48;20.73;;;;;;;18.89;98.59;102573.47;4974332;28;20034;-72
2022/07/09 07:58:47;;;;;;;29.20;20.98;;;;;;;18.94;100.00;102571.63;4984898;28;20062;-75
2022/07/09 08:01:13;;;;;;;26.42;18.27;;;;;;;19.06;98.50;102566.16;4993683;28;20277;-77
2022/07/09 08:03:38;;;;;;;29.08;21.13;;;;;;;19.08;96.37;102560.41;4993725;28;20033;-73
2022/07/09 08:06:08;;;;;;;27.25;20.30;;;;;;;19.17;98.46;102561.72;4993363;28;20101;-76
2022/07/09 08:08:53;;;;;;;36.72;22.88;;;;;;;19.16;98.47;102571.03;4993927;28;20065;-74
2022/07/09 08:11:19;;;;;;;29.42;22.63;;;;;;;19.11;94.54;102555.31;4990917;28;20057;-73
2022/07/09 08:13:45;;;;;;;31.17;23.00;;;;;;;19.06;95.27;102562.59;4992216;28;20454;-77
2022/07/09 08:16:10;;;;;;;26.40;21.85;;;;;;;19.03;98.31;102557.56;4993709;28;20108;-74
2022/07/09 08:18:35;;;;;;;28.55;20.35;;;;;;;19.12;100.00;102550.63;4987631;28;20478;-76
2022/07/09 08:21:00;;;;;;;22.92;20.40;;;;;;;19.28;95.83;102549.06;4979889;28;20355;-76
2022/07/09 08:23:26;;;;;;;23.02;19.63;;;;;;;19.40;93.35;102533.41;4993134;28;20036;-78
2022/07/09 08:25:51;;;;;;;26.70;20.38;;;;;;;19.39;91.26;102530.91;4987777;28;20049;-74
2022/07/09 08:28:16;;;;;;;25.77;19.67;;;;;;;19.47;92.48;102536.84;4985429;28;20018;-75
2022/07/09 08:30:42;;;;;;;26.05;20.75;;;;;;;19.51;89.78;102528.13;4993982;28;20046;-74
2022/07/09 08:33:07;;;;;;;25.38;19.60;;;;;;;19.57;90.47;102538.13;5011033;28;20022;-76
2022/07/09 08:35:33;;;;;;;23.25;20.60;;;;;;;19.50;87.15;102538.25;5007984;28;20056;-74
2022/07/09 08:37:58;;;;;;;29.85;20.95;;;;;;;19.43;88.65;102532.06;4986465;28;20489;-73
2022/07/09 08:40:25;;;;;;;25.85;19.50;;;;;;;19.42;87.53;102519.44;4992986;28;20365;-75
2022/07/09 08:42:53;;;;;;;27.85;18.08;;;;;;;19.51;85.22;102520.69;4997485;28;20396;-72
2022/07/09 08:45:18;;;;;;;22.42;18.05;;;;;;;19.60;86.26;102511.00;5012679;28;20108;-73
2022/07/09 08:47:43;;;;;;;23.40;17.67;;;;;;;19.65;84.34;102508.31;4994009;28;20158;-74
2022/07/09 08:50:10;;;;;;;21.42;17.92;;;;;;;19.77;84.58;102515.69;4992948;28;20022;-77
2022/07/09 08:52:38;;;;;;;22.50;17.33;;;;;;;19.90;82.54;102514.56;4992085;28;20145;-72
2022/07/09 08:55:05;;;;;;;23.33;18.40;;;;;;;20.01;83.29;102516.44;4993029;28;20030;-74
2022/07/09 08:57:31;;;;;;;24.95;17.15;;;;;;;20.09;83.84;102512.44;4991672;28;20398;-74
2022/07/09 08:59:56;;;;;;;22.92;17.77;;;;;;;20.06;80.20;102513.75;4992805;28;20346;-74
2022/07/09 09:02:22;;;;;;;22.15;15.63;;;;;;;;;;4988291;28;20030;-77
2022/07/09 09:04:47;;;;;;;22.07;17.47;;;;;;;20.14;81.06;102520.75;4993119;28;20022;-75
2022/07/09 09:07:17;;;;;;;23.48;16.67;;;;;;;20.29;80.53;102515.53;4992893;28;20308;-75
2022/07/09 09:09:42;;;;;;;19.25;14.93;;;;;;;20.33;79.38;102508.44;4992954;28;20034;-74
2022/07/09 09:12:09;;;;;;;16.73;13.90;;;;;;;20.32;76.69;102516.94;4992262;28;20080;-73
2022/07/09 09:14:34;;;;;;;17.77;13.55;;;;;;;20.32;77.73;102517.78;5004832;28;20037;-77
2022/07/09 09:17:09;;;;;;;19.58;14.63;;;;;;;20.28;77.83;102516.59;4987114;28;20027;-74
2022/07/09 09:19:35;;;;;;;23.00;14.60;;;;;;;20.27;78.61;102514.94;4973443;28;20307;-75
2022/07/09 09:22:00;;;;;;;20.52;14.80;;;;;;;20.25;78.32;102511.63;4973137;28;20027;-74
2022/07/09 09:24:26;;;;;;;19.55;14.75;;;;;;;20.24;78.38;102509.13;4992644;28;20421;-77
2022/07/09 09:26:51;;;;;;;18.75;14.20;;;;;;;20.28;79.63;102505.59;4993009;28;20030;-78
2022/07/09 09:29:16;;;;;;;20.35;15.88;;;;;;;20.23;79.17;102505.53;4993254;28;20469;-74
2022/07/09 09:31:45;;;;;;;22.45;15.85;;;;;;;20.22;78.69;102506.63;5002488;28;20440;-77
2022/07/09 09:34:13;;;;;;;17.95;15.02;;;;;;;20.25;79.21;102506.13;5012416;28;20157;-75
2022/07/09 09:36:41;;;;;;;22.10;15.07;;;;;;;20.29;81.27;102507.28;4995167;28;20369;-78
2022/07/09 09:39:28;;;;;;;18.30;15.75;;;;;;;20.35;80.45;102505.44;4992910;28;20121;-78
2022/07/09 09:41:57;;;;;;;21.30;16.48;;;;;;;20.40;78.85;102504.72;4999239;28;20515;-75
2022/07/09 09:44:26;;;;;;;23.10;16.40;;;;;;;20.41;78.40;102500.84;5002403;28;20038;-78
2022/07/09 09:46:52;;;;;;;21.70;16.15;;;;;;;20.39;79.03;102505.78;4993193;28;20500;-78
2022/07/09 09:49:17;;;;;;;19.92;15.90;;;;;;;20.33;79.49;102496.59;4996765;28;20025;-78
2022/07/09 09:51:49;;;;;;;21.60;15.55;;;;;;;20.32;80.51;102504.03;4994545;28;20030;-77
2022/07/09 09:54:16;;;;;;;21.45;15.02;;;;;;;20.26;81.00;102507.78;4995112;28;20022;-76
2022/07/09 09:56:42;;;;;;;20.95;15.80;;;;;;;20.21;81.92;102499.44;4984556;28;20026;-77
2022/07/09 09:59:09;;;;;;;20.05;16.30;;;;;;;20.16;82.17;102513.94;4985429;28;20038;-78
2022/07/09 10:01:34;;;;;;;23.42;15.95;;;;;;;20.09;83.10;102509.69;4994134;28;20061;-72
2022/07/09 10:04:01;;;;;;;17.77;15.25;;;;;;;20.03;83.60;102503.25;4996175;28;20061;-78
2022/07/09 10:06:26;;;;;;;18.77;13.38;;;;;;;20.00;82.08;102515.59;4995964;28;20030;-76
2022/07/09 10:08:53;;;;;;;22.60;13.52;;;;;;;19.95;81.93;102514.69;4996132;28;20434;-75
2022/07/09 10:11:18;;;;;;;20.40;13.35;;;;;;;19.94;82.75;102511.09;4995203;28;20026;-74
2022/07/09 10:13:56;;;;;;;18.85;13.23;;;;;;;19.97;81.71;102512.50;4994904;28;20029;-76
2022/07/09 10:16:36;;;;;;;16.58;12.23;;;;;;;20.00;81.88;102512.00;5011056;28;20393;-76
2022/07/09 10:19:02;;;;;;;14.73;10.48;;;;;;;20.05;81.77;102506.63;4995863;28;20050;-79
2022/07/09 10:21:31;;;;;;;17.30;10.23;;;;;;;;;;4995805;28;20093;-77
2022/07/09 10:23:57;;;;;;;14.05;8.93;;;;;;;20.19;79.86;102504.38;4976396;28;20066;-76
2022/07/09 10:26:22;;;;;;;15.50;10.48;;;;;;;20.24;80.47;102503.63;4976112;28;20031;-76
2022/07/09 10:28:47;;;;;;;17.20;9.38;;;;;;;20.25;81.24;102500.63;4974892;28;20476;-78
2022/07/09 10:31:20;;;;;;;15.23;7.93;;;;;;;20.24;79.84;102500.88;4987160;28;20034;-76
2022/07/09 10:33:54;;;;;;;12.15;7.40;;;;;;;20.24;79.18;102504.44;4982563;28;20118;-78
2022/07/09 10:36:19;;;;;;;9.82;7.40;;;;;;;20.33;79.00;102508.44;4976158;28;20082;-79
2022/07/09 10:38:57;;;;;;;13.43;8.00;;;;;;;20.38;79.80;102506.84;4975705;28;20023;-76
2022/07/09 10:41:23;;;;;;;9.50;6.80;;;;;;;20.39;78.72;102497.53;4987975;28;20058;-77
2022/07/09 10:43:52;;;;;;;13.82;7.03;;;;;;;20.38;80.63;102498.59;4995308;28;20057;-77
2022/07/09 10:46:18;;;;;;;10.98;6.10;;;;;;;20.45;78.29;102497.34;4993014;28;20042;-80
2022/07/09 10:48:47;;;;;;;9.63;5.20;;;;;;;20.63;78.60;102489.91;4985473;28;20026;-78
2022/07/09 10:51:20;;;;;;;8.98;4.55;;;;;;;20.82;75.64;102498.72;4994148;28;20484;-78
2022/07/09 10:53:46;;;;;;;6.65;3.22;;;;;;;20.89;72.15;102489.22;4995201;28;20026;-79
2022/07/09 10:56:19;;;;;;;8.52;3.58;;;;;;;21.01;72.94;102499.25;4993055;28;20022;-78
2022/07/09 10:58:48;;;;;;;7.78;3.20;;;;;;;21.05;70.85;102504.00;4994944;28;20026;-78
2022/07/09 11:01:21;;;;;;;5.18;3.53;;;;;;;21.19;71.15;102492.59;4987908;28;20038;-78
2022/07/09 11:03:50;;;;;;;4.90;3.03;;;;;;;21.24;70.29;102501.75;4974206;28;20113;-78
2022/07/09 11:06:15;;;;;;;6.00;3.20;;;;;;;21.35;70.72;102497.19;4974897;28;20114;-77
2022/07/09 11:08:41;;;;;;;4.75;2.80;;;;;;;21.47;70.96;102494.31;4975225;28;20161;-78
2022/07/09 11:11:06;;;;;;;5.82;2.97;;;;;;;21.56;70.67;102490.03;4984420;28;20117;-77